createdAt,value
2019-03-19T00:00:25.859Z,101156.27
2019-03-19T00:02:55.401Z,101153.09
2019-03-19T00:05:24.922Z,101164.64
2019-03-19T00:07:54.451Z,101154.83
2019-03-19T00:10:24.048Z,101161.44
2019-03-19T00:12:53.565Z,101150.36
2019-03-19T00:15:23.172Z,101157.62
2019-03-19T00:17:52.716Z,101149.26
2019-03-19T00:20:22.232Z,101159.41
2019-03-19T00:22:51.763Z,101160.88
2019-03-19T00:25:29.338Z,101162.31
2019-03-19T00:27:52.754Z,101169.69
2019-03-19T00:30:22.274Z,101158.05
2019-03-19T00:32:51.809Z,101176.48
2019-03-19T00:35:21.399Z,101176.94
2019-03-19T00:37:50.920Z,101177.11
2019-03-19T00:40:20.468Z,101177.03
2019-03-19T00:42:49.990Z,101178.48
2019-03-19T00:45:19.519Z,101173.63
2019-03-19T00:47:49.065Z,101177.36
2019-03-19T00:50:18.666Z,101178.00
2019-03-19T00:52:48.219Z,101175.23
2019-03-19T00:55:18.319Z,101175.80
2019-03-19T00:57:47.836Z,101177.97
2019-03-19T01:00:20.150Z,101176.61
2019-03-19T01:02:49.694Z,101176.78
2019-03-19T01:05:19.382Z,101171.85
2019-03-19T01:07:48.967Z,101177.31
2019-03-19T01:10:18.807Z,101179.75
2019-03-19T01:12:48.630Z,101175.77
2019-03-19T01:15:18.305Z,101176.05
2019-03-19T01:17:47.846Z,101176.55
2019-03-19T01:20:17.898Z,101181.38
2019-03-19T01:22:47.456Z,101176.54
2019-03-19T01:25:17.068Z,101177.38
2019-03-19T01:27:46.882Z,101182.53
2019-03-19T01:30:17.510Z,101179.91
2019-03-19T01:32:47.412Z,101185.70
2019-03-19T01:35:16.912Z,101188.64
2019-03-19T01:37:46.434Z,101187.41
2019-03-19T01:40:15.985Z,101196.31
2019-03-19T01:42:45.573Z,101199.05
2019-03-19T01:45:15.425Z,101203.23
2019-03-19T01:47:45.036Z,101212.05
2019-03-19T01:50:15.959Z,101215.27
2019-03-19T01:52:45.542Z,101210.74
2019-03-19T01:55:16.091Z,101223.84
2019-03-19T01:57:45.602Z,101216.66
2019-03-19T02:00:19.426Z,101226.33
2019-03-19T02:02:48.975Z,101230.09
2019-03-19T02:05:18.827Z,101224.56
2019-03-19T02:07:48.338Z,101229.41
2019-03-19T02:10:17.880Z,101226.75
2019-03-19T02:12:47.429Z,101236.27
2019-03-19T02:15:18.582Z,101232.39
2019-03-19T02:17:48.159Z,101239.81
2019-03-19T02:20:18.725Z,101239.00
2019-03-19T02:22:48.263Z,101242.95
2019-03-19T02:25:17.794Z,101245.53
2019-03-19T02:27:47.333Z,101243.49
2019-03-19T02:30:17.709Z,101240.76
2019-03-19T02:32:47.394Z,101253.59
2019-03-19T02:35:16.902Z,101262.16
2019-03-19T02:37:46.435Z,101256.51
2019-03-19T02:40:17.467Z,101266.36
2019-03-19T02:42:46.971Z,101257.09
2019-03-19T02:45:16.762Z,101265.23
2019-03-19T02:47:46.295Z,101271.17
2019-03-19T02:50:17.441Z,101266.98
2019-03-19T02:52:46.948Z,101272.45
2019-03-19T02:55:16.616Z,101262.82
2019-03-19T02:57:46.151Z,101274.92
2019-03-19T03:00:19.344Z,101279.36
2019-03-19T03:02:49.032Z,101275.77
2019-03-19T03:05:22.221Z,101279.48
2019-03-19T03:07:51.740Z,101286.58
2019-03-19T03:10:21.289Z,101287.22
2019-03-19T03:12:50.804Z,101288.70
2019-03-19T03:15:20.567Z,101287.81
2019-03-19T03:17:50.354Z,101285.17
2019-03-19T03:20:19.927Z,101284.84
2019-03-19T03:22:49.449Z,101296.95
2019-03-19T03:25:19.368Z,101291.78
2019-03-19T03:27:48.881Z,101298.81
2019-03-19T03:30:22.669Z,101294.86
2019-03-19T03:32:52.342Z,101297.92
2019-03-19T03:35:21.884Z,101300.67
2019-03-19T03:37:51.379Z,101301.61
2019-03-19T03:40:21.552Z,101299.46
2019-03-19T03:42:51.068Z,101301.20
2019-03-19T03:45:21.335Z,101305.41
2019-03-19T03:47:50.865Z,101309.69
2019-03-19T03:50:20.861Z,101318.13
2019-03-19T03:52:50.378Z,101315.80
2019-03-19T03:55:20.974Z,101317.88
2019-03-19T03:57:50.515Z,101316.52
2019-03-19T04:00:24.100Z,101325.63
2019-03-19T04:02:53.684Z,101327.40
2019-03-19T04:05:23.217Z,101331.08
2019-03-19T04:07:52.747Z,101344.70
2019-03-19T04:10:22.353Z,101341.56
2019-03-19T04:12:51.882Z,101346.86
2019-03-19T04:15:21.561Z,101351.38
2019-03-19T04:17:51.098Z,101361.46
2019-03-19T04:20:20.624Z,101356.95
2019-03-19T04:22:50.147Z,101366.55
2019-03-19T04:25:20.210Z,101367.34
2019-03-19T04:27:49.728Z,101376.52
2019-03-19T04:30:22.836Z,101382.64
2019-03-19T04:32:52.603Z,101383.05
2019-03-19T04:35:22.132Z,101386.11
2019-03-19T04:37:51.718Z,101382.16
2019-03-19T04:40:21.343Z,101382.56
2019-03-19T04:42:50.864Z,101385.63
2019-03-19T04:45:20.455Z,101386.20
2019-03-19T04:47:50.047Z,101380.80
2019-03-19T04:50:19.638Z,101390.80
2019-03-19T04:52:49.249Z,101390.88
2019-03-19T04:55:19.379Z,101391.81
2019-03-19T04:57:48.891Z,101393.67
2019-03-19T05:00:19.528Z,101400.37
2019-03-19T05:02:49.076Z,101401.82
2019-03-19T05:05:18.664Z,101401.90
2019-03-19T05:07:48.182Z,101403.19
2019-03-19T05:10:18.748Z,101408.27
2019-03-19T05:12:48.268Z,101408.27
2019-03-19T05:15:17.793Z,101421.11
2019-03-19T05:17:47.321Z,101427.64
2019-03-19T05:20:18.246Z,101429.91
2019-03-19T05:22:47.796Z,101441.52
2019-03-19T05:25:17.337Z,101434.74
2019-03-19T05:27:46.861Z,101441.20
2019-03-19T05:30:19.177Z,101454.52
2019-03-19T05:32:48.724Z,101448.06
2019-03-19T05:35:18.240Z,101473.05
2019-03-19T05:37:47.770Z,101467.87
2019-03-19T05:40:18.814Z,101467.07
2019-03-19T05:42:48.337Z,101467.47
2019-03-19T05:45:18.295Z,101470.05
2019-03-19T05:47:48.025Z,101475.70
2019-03-19T05:50:20.159Z,101483.54
2019-03-19T05:52:49.672Z,101482.89
2019-03-19T05:55:19.305Z,101488.79
2019-03-19T05:57:50.349Z,101497.16
2019-03-19T06:00:22.666Z,101492.55
2019-03-19T06:02:52.238Z,101498.69
2019-03-19T06:05:21.779Z,101502.24
2019-03-19T06:07:51.518Z,101500.06
2019-03-19T06:10:21.693Z,101508.87
2019-03-19T06:12:51.215Z,101512.55
2019-03-19T06:15:20.747Z,101509.72
2019-03-19T06:17:50.477Z,101510.37
2019-03-19T06:20:20.902Z,101519.98
2019-03-19T06:22:50.441Z,101517.69
2019-03-19T06:25:20.047Z,101522.36
2019-03-19T06:27:59.964Z,101520.55
2019-03-19T06:30:23.492Z,101523.94
2019-03-19T06:32:53.341Z,101534.16
2019-03-19T06:35:23.020Z,101535.28
2019-03-19T06:37:52.547Z,101534.91
2019-03-19T06:40:23.209Z,101534.81
2019-03-19T06:42:52.744Z,101543.34
2019-03-19T06:45:23.472Z,101538.47
2019-03-19T06:47:53.224Z,101543.55
2019-03-19T06:50:23.331Z,101540.65
2019-03-19T06:52:52.861Z,101541.78
2019-03-19T06:55:23.090Z,101538.94
2019-03-19T06:57:52.620Z,101539.76
2019-03-19T07:00:23.665Z,101543.71
2019-03-19T07:02:53.633Z,101538.61
2019-03-19T07:05:23.598Z,101545.71
2019-03-19T07:07:53.173Z,101547.97
2019-03-19T07:10:23.343Z,101556.77
2019-03-19T07:12:52.850Z,101559.56
2019-03-19T07:15:23.622Z,101549.56
2019-03-19T07:17:53.663Z,101551.28
2019-03-19T07:20:28.809Z,101552.38
2019-03-19T07:22:58.364Z,101546.61
2019-03-19T07:25:28.334Z,101549.81
2019-03-19T07:27:57.871Z,101558.59
2019-03-19T07:30:28.255Z,101565.55
2019-03-19T07:32:58.058Z,101563.84
2019-03-19T07:35:27.579Z,101565.19
2019-03-19T07:37:57.093Z,101563.73
2019-03-19T07:40:26.644Z,101564.59
2019-03-19T07:42:56.156Z,101574.45
2019-03-19T07:45:26.619Z,101581.77
2019-03-19T07:47:56.323Z,101585.07
2019-03-19T07:50:26.222Z,101588.14
2019-03-19T07:52:55.819Z,101587.44
2019-03-19T07:55:25.367Z,101598.03
2019-03-19T07:57:54.909Z,101606.71
2019-03-19T08:00:24.674Z,101603.44
2019-03-19T08:02:54.574Z,101601.97
2019-03-19T08:05:32.487Z,101605.12
2019-03-19T08:07:55.437Z,101611.95
2019-03-19T08:10:25.095Z,101607.33
2019-03-19T08:12:54.674Z,101614.02
2019-03-19T08:15:24.284Z,101619.50
2019-03-19T08:17:53.862Z,101620.97
2019-03-19T08:20:23.431Z,101627.80
2019-03-19T08:22:52.958Z,101629.08
2019-03-19T08:25:22.601Z,101626.87
2019-03-19T08:27:52.164Z,101631.41
2019-03-19T08:30:29.315Z,101622.33
2019-03-19T08:32:58.882Z,101621.56
2019-03-19T08:35:28.418Z,101624.84
2019-03-19T08:37:58.139Z,101640.25
2019-03-19T08:40:27.685Z,101642.31
2019-03-19T08:42:58.265Z,101657.26
2019-03-19T08:45:28.372Z,101654.42
2019-03-19T08:48:02.257Z,101662.47
2019-03-19T08:50:31.799Z,101652.12
2019-03-19T08:53:01.362Z,101650.98
2019-03-19T08:55:30.969Z,101647.64
2019-03-19T08:58:00.508Z,101639.86
2019-03-19T09:00:30.438Z,101646.61
2019-03-19T09:02:59.953Z,101648.36
2019-03-19T09:05:29.595Z,101644.75
2019-03-19T09:07:59.290Z,101648.00
2019-03-19T09:10:28.795Z,101651.98
2019-03-19T09:12:58.332Z,101655.81
2019-03-19T09:15:30.964Z,101661.59
2019-03-19T09:18:00.527Z,101655.64
2019-03-19T09:20:30.048Z,101663.67
2019-03-19T09:22:59.585Z,101668.33
2019-03-19T09:25:29.098Z,101668.02
2019-03-19T09:27:58.623Z,101661.58
2019-03-19T09:30:28.159Z,101672.82
2019-03-19T09:32:57.680Z,101675.82
2019-03-19T09:35:27.199Z,101676.65
2019-03-19T09:37:58.908Z,101675.66
2019-03-19T09:40:28.135Z,101687.44
2019-03-19T09:42:57.654Z,101681.75
2019-03-19T09:45:27.370Z,101667.25
2019-03-19T09:47:56.876Z,101675.34
2019-03-19T09:50:27.200Z,101672.95
2019-03-19T09:52:56.809Z,101681.55
2019-03-19T09:55:26.328Z,101675.15
2019-03-19T09:57:56.148Z,101670.14
2019-03-19T10:00:26.101Z,101674.91
2019-03-19T10:02:55.694Z,101671.43
2019-03-19T10:05:25.299Z,101676.48
2019-03-19T10:07:55.729Z,101681.64
2019-03-19T10:10:25.745Z,101673.95
2019-03-19T10:12:55.295Z,101670.10
2019-03-19T10:15:25.433Z,101672.86
2019-03-19T10:17:54.967Z,101688.84
2019-03-19T10:20:26.000Z,101685.41
2019-03-19T10:22:55.519Z,101688.46
2019-03-19T10:25:25.064Z,101691.13
2019-03-19T10:27:54.613Z,101689.80
2019-03-19T10:30:25.265Z,101696.72
2019-03-19T10:32:54.883Z,101697.95
2019-03-19T10:35:24.373Z,101696.45
2019-03-19T10:37:54.012Z,101701.91
2019-03-19T10:40:23.795Z,101697.73
2019-03-19T10:42:53.363Z,101692.00
2019-03-19T10:45:24.296Z,101693.77
2019-03-19T10:47:53.894Z,101691.58
2019-03-19T10:50:28.519Z,101701.66
2019-03-19T10:52:58.490Z,101696.83
2019-03-19T10:55:27.993Z,101698.59
2019-03-19T10:57:57.520Z,101700.80
2019-03-19T11:00:28.005Z,101696.41
2019-03-19T11:02:57.490Z,101697.19
2019-03-19T11:05:27.192Z,101692.16
2019-03-19T11:07:56.718Z,101695.23
2019-03-19T11:10:26.468Z,101696.92
2019-03-19T11:12:55.977Z,101707.14
2019-03-19T11:15:31.483Z,101705.98
2019-03-19T11:18:00.536Z,101699.85
2019-03-19T11:20:30.053Z,101707.61
2019-03-19T11:22:59.588Z,101703.87
2019-03-19T11:25:33.083Z,101709.73
2019-03-19T11:28:02.630Z,101711.48
2019-03-19T11:30:33.110Z,101707.53
2019-03-19T11:33:02.688Z,101715.27
2019-03-19T11:35:32.205Z,101722.91
2019-03-19T11:38:01.736Z,101728.31
2019-03-19T11:40:31.250Z,101745.14
2019-03-19T11:43:00.757Z,101731.12
2019-03-19T11:45:30.733Z,101745.00
2019-03-19T11:48:00.253Z,101735.22
2019-03-19T11:50:33.414Z,101736.69
2019-03-19T11:53:02.532Z,101734.29
2019-03-19T11:55:32.052Z,101742.77
2019-03-19T11:58:01.568Z,101737.45
2019-03-19T12:00:45.388Z,101747.05
2019-03-19T12:03:16.342Z,101742.70
2019-03-19T12:05:46.302Z,101742.67
2019-03-19T12:08:15.835Z,101746.23
2019-03-19T12:10:45.367Z,101745.17
2019-03-19T12:13:15.220Z,101737.78
2019-03-19T12:15:44.789Z,101740.08
2019-03-19T12:18:14.306Z,101735.88
2019-03-19T12:20:43.814Z,101740.98
2019-03-19T12:23:13.331Z,101742.23
2019-03-19T12:25:42.846Z,101746.88
2019-03-19T12:28:12.363Z,101752.48
2019-03-19T12:30:41.897Z,101747.30
2019-03-19T12:33:11.412Z,101751.63
2019-03-19T12:35:40.933Z,101752.86
2019-03-19T12:38:10.607Z,101752.35
2019-03-19T12:40:40.120Z,101756.42
2019-03-19T12:43:09.638Z,101752.22
2019-03-19T12:45:39.170Z,101755.18
2019-03-19T12:48:08.703Z,101752.55
2019-03-19T12:50:38.219Z,101759.55
2019-03-19T12:53:07.967Z,101749.94
2019-03-19T12:55:37.477Z,101760.23
2019-03-19T12:58:07.196Z,101758.38
2019-03-19T13:00:36.726Z,101764.47
2019-03-19T13:03:06.783Z,101764.61
2019-03-19T13:05:36.286Z,101760.33
2019-03-19T13:08:05.911Z,101762.81
2019-03-19T13:10:35.418Z,101758.66
2019-03-19T13:13:05.294Z,101757.20
2019-03-19T13:15:35.176Z,101759.72
2019-03-19T13:18:04.948Z,101765.97
2019-03-19T13:20:34.473Z,101753.08
2019-03-19T13:23:04.181Z,101755.09
2019-03-19T13:25:33.700Z,101750.30
2019-03-19T13:28:03.220Z,101753.27
2019-03-19T13:30:44.100Z,101768.74
2019-03-19T13:33:04.789Z,101768.64
2019-03-19T13:35:34.297Z,101766.88
2019-03-19T13:38:03.983Z,101763.95
2019-03-19T13:40:33.570Z,101765.28
2019-03-19T13:43:03.091Z,101769.04
2019-03-19T13:45:32.791Z,101772.13
2019-03-19T13:48:02.297Z,101768.26
2019-03-19T13:50:31.810Z,101773.73
2019-03-19T13:53:01.342Z,101778.36
2019-03-19T13:55:30.871Z,101775.11
2019-03-19T13:58:00.384Z,101776.72
2019-03-19T14:00:30.353Z,101784.75
2019-03-19T14:02:59.882Z,101778.17
2019-03-19T14:05:29.393Z,101787.78
2019-03-19T14:07:59.004Z,101792.95
2019-03-19T14:10:28.559Z,101790.19
2019-03-19T14:12:58.067Z,101788.27
2019-03-19T14:15:29.075Z,101795.92
2019-03-19T14:17:58.597Z,101795.20
2019-03-19T14:20:28.097Z,101795.53
2019-03-19T14:22:57.710Z,101800.52
2019-03-19T14:25:27.227Z,101800.30
2019-03-19T14:27:56.730Z,101801.77
2019-03-19T14:30:27.799Z,101804.19
2019-03-19T14:32:57.369Z,101795.13
2019-03-19T14:35:36.884Z,101807.44
2019-03-19T14:37:58.343Z,101813.64
2019-03-19T14:40:28.309Z,101803.34
2019-03-19T14:43:01.017Z,101804.44
2019-03-19T14:45:29.111Z,101801.05
2019-03-19T14:47:58.617Z,101806.78
2019-03-19T14:50:28.213Z,101808.21
2019-03-19T14:52:57.737Z,101800.58
2019-03-19T14:55:27.250Z,101797.42
2019-03-19T14:57:56.766Z,101805.45
2019-03-19T15:00:26.306Z,101807.19
2019-03-19T15:02:55.826Z,101817.37
2019-03-19T15:05:25.339Z,101819.55
2019-03-19T15:07:54.848Z,101821.20
2019-03-19T15:10:25.098Z,101821.27
2019-03-19T15:12:54.598Z,101820.67
2019-03-19T15:15:24.369Z,101821.42
2019-03-19T15:17:53.877Z,101818.52
2019-03-19T15:20:28.537Z,101817.84
2019-03-19T15:22:58.079Z,101825.94
2019-03-19T15:25:27.581Z,101829.72
2019-03-19T15:27:57.091Z,101830.67
2019-03-19T15:30:26.614Z,101839.50
2019-03-19T15:32:56.140Z,101837.02
2019-03-19T15:35:25.645Z,101834.44
2019-03-19T15:37:55.290Z,101842.42
2019-03-19T15:40:24.794Z,101848.83
2019-03-19T15:42:54.295Z,101848.67
2019-03-19T15:45:27.786Z,101843.22
2019-03-19T15:47:57.285Z,101853.70
2019-03-19T15:50:26.862Z,101858.53
2019-03-19T15:52:56.426Z,101858.09
2019-03-19T15:55:25.951Z,101852.41
2019-03-19T15:57:55.479Z,101852.88
2019-03-19T16:00:25.354Z,101860.57
2019-03-19T16:02:54.798Z,101861.11
2019-03-19T16:05:24.310Z,101863.32
2019-03-19T16:07:53.953Z,101862.44
2019-03-19T16:10:23.459Z,101867.56
2019-03-19T16:12:52.980Z,101864.36
2019-03-19T16:15:23.603Z,101870.40
2019-03-19T16:17:53.181Z,101866.02
2019-03-19T16:20:23.526Z,101872.00
2019-03-19T16:22:53.139Z,101874.06
2019-03-19T16:25:22.648Z,101879.19
2019-03-19T16:27:52.231Z,101881.73
2019-03-19T16:30:22.025Z,101890.84
2019-03-19T16:32:51.600Z,101887.70
2019-03-19T16:35:21.152Z,101897.53
2019-03-19T16:37:50.778Z,101899.09
2019-03-19T16:40:22.652Z,101896.17
2019-03-19T16:42:52.184Z,101901.11
2019-03-19T16:45:22.053Z,101904.70
2019-03-19T16:47:51.547Z,101923.93
2019-03-19T16:50:24.565Z,101916.91
2019-03-19T16:52:54.246Z,101920.56
2019-03-19T16:55:23.829Z,101924.21
2019-03-19T16:57:53.332Z,101927.41
2019-03-19T17:00:25.154Z,101936.19
2019-03-19T17:02:54.663Z,101935.37
2019-03-19T17:05:24.232Z,101937.71
2019-03-19T17:07:54.063Z,101937.91
2019-03-19T17:10:29.336Z,101950.27
2019-03-19T17:12:58.890Z,101944.93
2019-03-19T17:15:28.398Z,101942.99
2019-03-19T17:17:57.955Z,101948.58
2019-03-19T17:20:27.469Z,101956.23
2019-03-19T17:22:56.988Z,101954.10
2019-03-19T17:25:27.195Z,101954.97
2019-03-19T17:27:56.746Z,101957.66
2019-03-19T17:30:31.823Z,101965.89
2019-03-19T17:33:01.347Z,101972.46
2019-03-19T17:35:31.014Z,101965.94
2019-03-19T17:38:00.521Z,101969.51
2019-03-19T17:40:40.549Z,101973.51
2019-03-19T17:43:01.288Z,101974.97
2019-03-19T17:45:30.795Z,101979.50
2019-03-19T17:48:00.578Z,101987.44
2019-03-19T17:50:42.702Z,101978.36
2019-03-19T17:53:12.437Z,101989.23
2019-03-19T17:55:41.941Z,101995.30
2019-03-19T17:58:11.443Z,101990.13
2019-03-19T18:00:45.638Z,101991.58
2019-03-19T18:03:15.170Z,101996.18
2019-03-19T18:05:44.689Z,102007.27
2019-03-19T18:08:14.340Z,102018.02
2019-03-19T18:10:43.851Z,102008.06
2019-03-19T18:13:13.353Z,102013.73
2019-03-19T18:15:42.878Z,102014.81
2019-03-19T18:18:12.388Z,102018.61
2019-03-19T18:20:41.886Z,102018.20
2019-03-19T18:23:11.427Z,102024.19
2019-03-19T18:25:40.928Z,102022.00
2019-03-19T18:28:10.418Z,102019.64
2019-03-19T18:30:39.968Z,102035.81
2019-03-19T18:33:09.480Z,102037.69
2019-03-19T18:35:38.991Z,102041.70
2019-03-19T18:38:08.603Z,102041.04
2019-03-19T18:40:38.242Z,102041.70
2019-03-19T18:43:07.762Z,102048.00
2019-03-19T18:45:37.537Z,102046.13
2019-03-19T18:48:07.045Z,102050.63
2019-03-19T18:50:36.538Z,102051.66
2019-03-19T18:53:06.363Z,102050.71
2019-03-19T18:55:35.869Z,102055.70
2019-03-19T18:58:05.368Z,102066.50
2019-03-19T19:00:35.286Z,102066.58
2019-03-19T19:03:04.834Z,102071.47
2019-03-19T19:05:34.663Z,102062.73
2019-03-19T19:08:04.199Z,102070.22
2019-03-19T19:10:33.720Z,102069.17
2019-03-19T19:13:03.220Z,102077.86
2019-03-19T19:15:32.910Z,102074.44
2019-03-19T19:18:02.414Z,102080.63
2019-03-19T19:20:31.930Z,102083.33
2019-03-19T19:23:02.874Z,102085.67
2019-03-19T19:25:32.773Z,102082.71
2019-03-19T19:28:02.300Z,102084.70
2019-03-19T19:30:33.509Z,102090.09
2019-03-19T19:33:03.018Z,102092.58
2019-03-19T19:35:32.580Z,102097.49
2019-03-19T19:38:03.325Z,102096.81
2019-03-19T19:40:33.218Z,102098.61
2019-03-19T19:43:02.708Z,102101.44
2019-03-19T19:45:32.245Z,102099.45
2019-03-19T19:48:01.746Z,102096.28
2019-03-19T19:50:31.267Z,102096.47
2019-03-19T19:53:00.948Z,102102.23
2019-03-19T19:55:30.467Z,102104.72
2019-03-19T19:57:59.966Z,102113.08
2019-03-19T20:00:29.660Z,102123.71
2019-03-19T20:02:59.182Z,102118.75
2019-03-19T20:05:28.680Z,102124.16
2019-03-19T20:07:58.196Z,102133.09
2019-03-19T20:10:28.481Z,102127.23
2019-03-19T20:12:57.986Z,102132.70
2019-03-19T20:15:27.541Z,102134.63
2019-03-19T20:17:57.052Z,102139.00
2019-03-19T20:20:30.139Z,102148.94
2019-03-19T20:22:59.821Z,102146.58
2019-03-19T20:25:29.367Z,102147.94
2019-03-19T20:27:58.900Z,102152.61
2019-03-19T20:30:29.162Z,102151.02
2019-03-19T20:32:58.671Z,102158.87
2019-03-19T20:35:28.243Z,102159.77
2019-03-19T20:37:57.868Z,102155.49
2019-03-19T20:40:27.376Z,102154.59
2019-03-19T20:42:56.874Z,102164.73
2019-03-19T20:45:29.723Z,102174.86
2019-03-19T20:47:59.296Z,102181.05
2019-03-19T20:50:38.271Z,102178.45
2019-03-19T20:53:07.843Z,102186.59
2019-03-19T20:55:37.346Z,102187.11
2019-03-19T20:58:07.292Z,102196.84
2019-03-19T21:00:36.826Z,102202.00
2019-03-19T21:03:06.716Z,102206.56
2019-03-19T21:05:36.260Z,102208.27
2019-03-19T21:08:05.949Z,102215.48
2019-03-19T21:10:35.464Z,102221.23
2019-03-19T21:13:05.566Z,102217.98
2019-03-19T21:15:35.052Z,102212.22
2019-03-19T21:18:04.636Z,102217.48
2019-03-19T21:20:34.157Z,102213.11
2019-03-19T21:23:03.667Z,102220.75
2019-03-19T21:25:33.162Z,102229.27
2019-03-19T21:28:13.235Z,102228.27
2019-03-19T21:30:33.914Z,102228.17
2019-03-19T21:33:03.417Z,102223.91
2019-03-19T21:35:32.952Z,102228.17
2019-03-19T21:38:02.461Z,102232.44
2019-03-19T21:40:31.989Z,102235.12
2019-03-19T21:43:01.833Z,102238.98
2019-03-19T21:45:31.341Z,102239.78
2019-03-19T21:48:00.866Z,102235.41
2019-03-19T21:50:30.385Z,102235.91
2019-03-19T21:52:59.899Z,102242.46
2019-03-19T21:55:29.397Z,102242.06
2019-03-19T21:57:58.921Z,102246.23
2019-03-19T22:00:28.521Z,102239.89
2019-03-19T22:02:58.023Z,102244.16
2019-03-19T22:05:27.575Z,102252.28
2019-03-19T22:07:57.060Z,102251.28
2019-03-19T22:10:26.559Z,102253.87
2019-03-19T22:12:56.277Z,102256.34
2019-03-19T22:15:26.719Z,102254.66
2019-03-19T22:17:56.365Z,102248.99
2019-03-19T22:20:26.327Z,102254.05
2019-03-19T22:22:55.826Z,102257.99
2019-03-19T22:25:25.339Z,102251.05
2019-03-19T22:27:55.255Z,102260.42
2019-03-19T22:30:24.760Z,102260.31
2019-03-19T22:32:54.263Z,102256.01
2019-03-19T22:35:23.786Z,102261.27
2019-03-19T22:37:53.295Z,102264.13
2019-03-19T22:40:22.798Z,102265.92
2019-03-19T22:42:52.389Z,102264.63
2019-03-19T22:45:21.897Z,102274.94
2019-03-19T22:47:51.403Z,102270.80
2019-03-19T22:50:21.114Z,102274.27
2019-03-19T22:52:50.619Z,102270.58
2019-03-19T22:55:28.472Z,102270.30
2019-03-19T22:57:51.365Z,102279.94
2019-03-19T23:00:35.754Z,102282.12
2019-03-19T23:03:07.462Z,102280.61
2019-03-19T23:05:37.392Z,102284.26
2019-03-19T23:08:06.894Z,102289.73
2019-03-19T23:10:36.775Z,102281.67
2019-03-19T23:13:06.431Z,102289.80
2019-03-19T23:15:36.106Z,102294.63
2019-03-19T23:18:06.116Z,102291.32
2019-03-19T23:20:35.786Z,102298.47
2019-03-19T23:23:05.801Z,102296.06
2019-03-19T23:25:35.494Z,102292.09
2019-03-19T23:28:05.218Z,102296.12
2019-03-19T23:30:34.730Z,102294.92
2019-03-19T23:33:04.346Z,102293.70
2019-03-19T23:35:33.843Z,102297.39
2019-03-19T23:38:03.349Z,102296.19
2019-03-19T23:40:33.033Z,102291.70
2019-03-19T23:43:02.546Z,102293.95
2019-03-19T23:45:32.305Z,102298.40
2019-03-19T23:48:02.171Z,102298.05
2019-03-19T23:50:31.662Z,102299.00
2019-03-19T23:53:01.250Z,102301.35
2019-03-19T23:55:30.755Z,102297.30
2019-03-19T23:58:00.281Z,102303.00
